Time;durP1;ratioP1;P1;durP2;ratioP2;P2;SDS_P1;SDS_P2;PMS_P1;PMS_P2;Temp;Humidity;BMP_temperature;BMP_pressure;BME280_temperature;BME280_humidity;BME280_pressure;Samples;Min_cycle;Max_cycle;Signal;HPM_P1;HPM_P2
2021/11/08 00:00:23;;;;;;;19.50;7.17;;;8.20;99.90;;;;;;5012603;28;20450;-46
2021/11/08 00:02:50;;;;;;;10.33;5.60;;;8.30;99.90;;;;;;5018030;28;20817;-47
2021/11/08 00:05:16;;;;;;;20.50;6.10;;;8.30;99.90;;;;;;5020848;28;20935;-48
2021/11/08 00:07:43;;;;;;;13.57;5.80;;;8.50;99.90;;;;;;5013837;28;20466;-45
2021/11/08 00:10:08;;;;;;;18.60;5.87;;;8.20;99.90;;;;;;5017858;28;20421;-47
2021/11/08 00:12:35;;;;;;;13.60;6.13;;;8.50;99.90;;;;;;5007062;28;20784;-46
2021/11/08 00:15:01;;;;;;;13.33;6.20;;;8.10;99.90;;;;;;5011044;28;20174;-45
2021/11/08 00:20:19;;;;;;;10.53;5.60;;;8.20;99.90;;;;;;5005080;28;20922;-46
2021/11/08 00:22:46;;;;;;;14.90;5.67;;;8.40;99.90;;;;;;5015462;28;20448;-44
2021/11/08 00:25:12;;;;;;;16.70;5.70;;;8.30;99.90;;;;;;5022288;28;20429;-46
2021/11/08 00:27:38;;;;;;;15.50;5.93;;;8.40;99.90;;;;;;5017325;28;20483;-45
2021/11/08 00:30:06;;;;;;;11.63;5.67;;;8.30;99.90;;;;;;5009470;28;20608;-45
2021/11/08 00:32:33;;;;;;;12.43;5.93;;;8.60;99.90;;;;;;5006392;28;20796;-45
2021/11/08 00:34:59;;;;;;;12.10;5.67;;;8.50;99.90;;;;;;5004805;28;20793;-45
2021/11/08 00:37:24;;;;;;;11.50;5.63;;;8.60;99.90;;;;;;5008746;28;20449;-48
2021/11/08 00:39:50;;;;;;;15.13;6.07;;;8.30;99.90;;;;;;5024976;28;20436;-46
2021/11/08 00:42:16;;;;;;;16.17;6.20;;;8.50;99.90;;;;;;5017357;28;20199;-45
2021/11/08 00:44:42;;;;;;;13.57;6.73;;;8.40;99.90;;;;;;5010209;28;20187;-47
2021/11/08 00:47:08;;;;;;;14.50;6.33;;;8.50;99.90;;;;;;5021030;28;20487;-46
2021/11/08 00:49:36;;;;;;;18.93;6.87;;;8.50;99.90;;;;;;5010394;28;20199;-45
2021/11/08 00:52:04;;;;;;;10.00;5.77;;;8.60;99.90;;;;;;5013688;28;20557;-45
2021/11/08 00:54:30;;;;;;;12.70;4.83;;;8.60;99.90;;;;;;5020197;28;20420;-45
2021/11/08 00:56:59;;;;;;;12.10;5.87;;;8.90;99.90;;;;;;5017593;28;20450;-48
2021/11/08 00:59:25;;;;;;;18.17;5.80;;;8.90;99.90;;;;;;5009671;28;20241;-46
2021/11/08 01:01:54;;;;;;;11.10;6.30;;;8.60;99.90;;;;;;5017739;28;20436;-46
2021/11/08 01:04:22;;;;;;;12.70;5.77;;;8.60;99.90;;;;;;5009096;28;20441;-46
2021/11/08 01:06:54;;;;;;;14.23;6.20;;;8.40;99.90;;;;;;5011444;28;20484;-45
2021/11/08 01:09:20;;;;;;;11.80;5.90;;;8.50;99.90;;;;;;5020825;28;20464;-45
2021/11/08 01:11:46;;;;;;;13.87;6.10;;;8.40;99.90;;;;;;5027417;28;20422;-45
2021/11/08 01:14:12;;;;;;;15.87;6.07;;;8.40;99.90;;;;;;5009228;28;20430;-46
2021/11/08 01:16:38;;;;;;;12.70;6.63;;;8.60;99.90;;;;;;5017276;28;20536;-45
2021/11/08 01:19:07;;;;;;;30.10;8.30;;;8.10;99.90;;;;;;5011200;28;20441;-44
2021/11/08 01:21:34;;;;;;;13.00;6.00;;;8.20;99.90;;;;;;5009126;28;20426;-44
2021/11/08 01:24:01;;;;;;;13.83;6.50;;;8.50;99.90;;;;;;5011858;28;20512;-45
2021/11/08 01:26:27;;;;;;;16.47;6.40;;;8.30;99.90;;;;;;5015923;28;20456;-47
2021/11/08 01:28:54;;;;;;;12.73;6.03;;;8.40;99.90;;;;;;5009261;28;20426;-49
2021/11/08 01:31:19;;;;;;;15.80;6.10;;;8.30;99.90;;;;;;5019966;28;20425;-46
2021/11/08 01:33:49;;;;;;;11.70;5.80;;;8.40;99.90;;;;;;5009690;28;20492;-45
2021/11/08 01:36:22;;;;;;;13.03;6.57;;;8.50;99.90;;;;;;5007611;28;20437;-45
2021/11/08 01:38:49;;;;;;;11.53;6.33;;;8.20;99.90;;;;;;5017794;28;20971;-44
2021/11/08 01:41:21;;;;;;;16.27;6.23;;;8.60;99.90;;;;;;5012250;28;20788;-44
2021/11/08 01:43:48;;;;;;;16.57;6.40;;;8.40;99.90;;;;;;5008687;28;20474;-45
2021/11/08 01:46:15;;;;;;;14.20;6.13;;;8.50;99.90;;;;;;5016225;28;20468;-46
2021/11/08 01:48:41;;;;;;;11.93;5.80;;;8.70;99.90;;;;;;5009105;28;20418;-45
2021/11/08 01:51:08;;;;;;;16.47;5.83;;;8.40;99.90;;;;;;5007675;28;20434;-45
2021/11/08 01:53:34;;;;;;;18.73;7.17;;;8.40;99.90;;;;;;5020581;28;20459;-46
2021/11/08 01:56:00;;;;;;;14.93;6.10;;;8.50;99.90;;;;;;5023908;28;20456;-51
2021/11/08 01:58:28;;;;;;;20.73;7.00;;;8.40;99.90;;;;;;5020619;28;20480;-45
2021/11/08 02:00:54;;;;;;;18.87;6.80;;;8.30;99.90;;;;;;5012612;28;20413;-45
2021/11/08 02:03:21;;;;;;;12.47;6.37;;;8.40;99.90;;;;;;5008122;28;20804;-45
2021/11/08 02:05:47;;;;;;;14.67;6.53;;;8.50;99.90;;;;;;5008731;28;20436;-45
2021/11/08 02:08:14;;;;;;;15.10;6.87;;;8.50;99.90;;;;;;5014598;28;20474;-45
2021/11/08 02:10:40;;;;;;;12.27;7.23;;;8.40;99.90;;;;;;5026209;28;20513;-45
2021/11/08 02:13:07;;;;;;;17.67;6.60;;;8.50;99.90;;;;;;5009211;28;21004;-44
2021/11/08 02:15:36;;;;;;;17.00;7.40;;;8.40;99.90;;;;;;5010536;28;20537;-45
2021/11/08 02:18:06;;;;;;;12.97;7.27;;;8.30;99.90;;;;;;5018720;28;20449;-45
2021/11/08 02:20:32;;;;;;;16.83;8.03;;;8.30;99.90;;;;;;5008503;28;20429;-45
2021/11/08 02:23:03;;;;;;;15.93;7.03;;;8.50;99.90;;;;;;5015012;28;20856;-45
2021/11/08 02:25:30;;;;;;;16.03;7.27;;;8.50;99.90;;;;;;5017825;28;20461;-47
2021/11/08 02:27:58;;;;;;;16.03;8.53;;;8.90;99.90;;;;;;5013092;28;20480;-46
2021/11/08 02:30:27;;;;;;;19.03;8.77;;;8.60;99.90;;;;;;5008688;28;20517;-45
2021/11/08 02:32:54;;;;;;;17.07;8.10;;;8.70;99.90;;;;;;5015432;28;20480;-47
2021/11/08 02:35:20;;;;;;;15.90;6.87;;;9.00;99.90;;;;;;5006223;28;21011;-47
2021/11/08 02:37:46;;;;;;;15.23;8.00;;;8.90;99.90;;;;;;5011602;28;20839;-47
2021/11/08 02:40:23;;;;;;;11.93;7.40;;;8.80;99.90;;;;;;5017605;28;20453;-45
2021/11/08 02:42:52;;;;;;;13.50;8.10;;;8.90;99.90;;;;;;5025103;28;20535;-45
2021/11/08 02:45:21;;;;;;;15.87;9.60;;;8.60;99.90;;;;;;5007933;28;20513;-44
2021/11/08 02:47:49;;;;;;;17.73;7.83;;;8.60;99.90;;;;;;5011669;28;20497;-45
2021/11/08 02:50:16;;;;;;;20.17;9.80;;;8.50;99.90;;;;;;5007732;28;20432;-46
2021/11/08 02:52:42;;;;;;;16.83;8.43;;;8.60;99.90;;;;;;5008448;28;20430;-45
2021/11/08 02:55:08;;;;;;;14.07;9.77;;;8.50;99.90;;;;;;5026879;28;20441;-45
2021/11/08 02:57:37;;;;;;;19.30;11.07;;;8.70;99.90;;;;;;5021859;28;20459;-48
2021/11/08 03:00:09;;;;;;;17.40;9.53;;;8.40;99.90;;;;;;5006448;28;20712;-46
2021/11/08 03:02:38;;;;;;;24.70;11.17;;;8.60;99.90;;;;;;5007840;28;20980;-46
2021/11/08 03:05:05;;;;;;;19.63;10.40;;;8.50;99.90;;;;;;5007149;28;20492;-45
2021/11/08 03:07:36;;;;;;;21.60;11.47;;;8.40;99.90;;;;;;5007627;28;20478;-45
2021/11/08 03:10:05;;;;;;;18.93;11.87;;;8.30;99.90;;;;;;5016661;28;20425;-45
2021/11/08 03:12:34;;;;;;;26.80;12.60;;;8.60;99.90;;;;;;5017723;28;20430;-45
2021/11/08 03:17:35;;;;;;;24.23;12.20;;;8.40;99.90;;;;;;5017444;28;20785;-47
2021/11/08 03:20:04;;;;;;;20.60;11.27;;;8.50;99.90;;;;;;5007621;28;20426;-46
2021/11/08 03:22:33;;;;;;;16.60;11.00;;;8.50;99.90;;;;;;5008247;28;20437;-46
2021/11/08 03:25:50;;;;;;;19.97;10.17;;;8.40;99.90;;;;;;5018786;28;20811;-46
2021/11/08 03:27:51;;;;;;;16.47;11.77;;;8.60;99.90;;;;;;5010405;28;21038;-45
2021/11/08 03:30:25;;;;;;;21.57;11.00;;;8.50;99.90;;;;;;5007329;28;20462;-45
2021/11/08 03:32:52;;;;;;;23.17;11.43;;;8.70;99.90;;;;;;5012487;28;20433;-46
2021/11/08 03:35:20;;;;;;;18.97;10.57;;;8.70;99.90;;;;;;5005742;28;20791;-46
2021/11/08 03:37:47;;;;;;;23.70;11.53;;;8.80;99.90;;;;;;5006998;28;20429;-45
2021/11/08 03:40:23;;;;;;;21.20;10.67;;;8.50;99.90;;;;;;5015950;28;20449;-47
2021/11/08 03:42:51;;;;;;;23.00;11.17;;;8.40;99.90;;;;;;5022136;28;20788;-46
2021/11/08 03:45:18;;;;;;;18.97;10.67;;;8.50;99.90;;;;;;5007224;28;21035;-45
2021/11/08 03:47:45;;;;;;;21.33;11.03;;;8.40;99.90;;;;;;5007037;28;20995;-45
2021/11/08 03:50:12;;;;;;;16.37;9.50;;;8.40;99.90;;;;;;5007185;28;20742;-45
2021/11/08 03:52:39;;;;;;;21.63;10.60;;;8.30;99.90;;;;;;5006597;28;20422;-46
2021/11/08 03:55:07;;;;;;;18.47;10.27;;;8.40;99.90;;;;;;5010523;28;20508;-46
2021/11/08 03:57:33;;;;;;;18.00;9.80;;;8.60;99.90;;;;;;5011970;28;20503;-46
2021/11/08 03:59:59;;;;;;;17.80;9.73;;;8.40;99.90;;;;;;5007138;28;20429;-46
2021/11/08 04:02:25;;;;;;;24.83;10.57;;;8.60;99.90;;;;;;5017591;28;20206;-45
2021/11/08 04:04:51;;;;;;;22.17;11.07;;;8.50;99.90;;;;;;5006259;28;20653;-49
2021/11/08 04:07:17;;;;;;;17.20;9.40;;;8.40;99.90;;;;;;5005474;28;20477;-47
2021/11/08 04:09:43;;;;;;;24.27;10.60;;;8.20;99.90;;;;;;5016640;28;20190;-45
2021/11/08 04:12:09;;;;;;;21.47;11.63;;;8.40;99.90;;;;;;5018112;28;20647;-47
2021/11/08 04:14:38;;;;;;;19.00;10.30;;;8.50;99.90;;;;;;5009726;28;20583;-45
2021/11/08 04:17:05;;;;;;;19.93;10.30;;;8.40;99.90;;;;;;5017063;28;20425;-45
2021/11/08 04:19:32;;;;;;;17.40;9.70;;;8.30;99.90;;;;;;5010313;28;20428;-45
2021/11/08 04:22:01;;;;;;;20.13;10.10;;;8.60;99.90;;;;;;5010784;28;20445;-45
2021/11/08 04:24:27;;;;;;;20.60;10.60;;;8.40;99.90;;;;;;5017563;28;20445;-47
2021/11/08 04:26:54;;;;;;;18.47;10.60;;;8.30;99.90;;;;;;5022715;28;20457;-46
2021/11/08 04:29:21;;;;;;;18.87;10.77;;;8.30;99.90;;;;;;5021566;28;20439;-45
2021/11/08 04:31:47;;;;;;;17.80;10.40;;;8.30;99.90;;;;;;5013236;28;20437;-47
2021/11/08 04:34:22;;;;;;;19.17;10.50;;;8.20;99.90;;;;;;5009766;28;20433;-45
2021/11/08 04:42:57;;;;;;;19.77;10.33;;;8.30;99.90;;;;;;5021578;28;20417;-45
2021/11/08 05:31:36;;;;;;;17.40;10.37;;;8.20;99.90;;;;;;5009343;28;20422;-45
2021/11/08 05:34:02;;;;;;;24.53;10.87;;;8.10;99.90;;;;;;5020705;28;20426;-47
2021/11/08 05:36:28;;;;;;;20.43;10.77;;;8.20;99.90;;;;;;5007549;28;20433;-46
2021/11/08 05:38:53;;;;;;;18.90;9.60;;;8.20;99.90;;;;;;5013035;28;20507;-46
2021/11/08 05:41:19;;;;;;;17.60;10.50;;;8.00;99.90;;;;;;5014171;28;20193;-45
2021/11/08 05:43:45;;;;;;;20.53;10.00;;;8.20;99.90;;;;;;5021978;28;20194;-45
2021/11/08 05:46:11;;;;;;;18.57;10.10;;;8.10;99.90;;;;;;5022183;28;20591;-45
2021/11/08 05:48:37;;;;;;;16.33;9.60;;;8.30;99.90;;;;;;5012470;28;20415;-48
2021/11/08 05:51:03;;;;;;;23.83;10.13;;;8.00;99.90;;;;;;5008731;28;20425;-49
2021/11/08 05:53:29;;;;;;;22.40;10.93;;;7.90;99.90;;;;;;5009096;28;20430;-46
2021/11/08 06:50:25;;;;;;;20.63;9.80;;;7.90;99.90;;;;;;5008244;28;20440;-46
2021/11/08 06:52:56;;;;;;;14.30;9.07;;;8.00;99.90;;;;;;5007162;28;20933;-46
2021/11/08 06:55:22;;;;;;;19.47;8.70;;;7.80;99.90;;;;;;5015751;28;20686;-45
2021/11/08 06:57:57;;;;;;;18.10;8.90;;;7.80;99.90;;;;;;5023849;28;20536;-45
2021/11/08 07:00:25;;;;;;;15.23;8.73;;;7.70;99.90;;;;;;5008347;28;20191;-46
2021/11/08 07:02:51;;;;;;;21.97;8.50;;;7.90;99.90;;;;;;5011215;28;20455;-47
2021/11/08 07:05:16;;;;;;;15.33;8.63;;;7.80;99.90;;;;;;5024613;28;20441;-48
2021/11/08 07:07:42;;;;;;;18.67;8.57;;;7.80;99.90;;;;;;5016592;28;20233;-49
2021/11/08 07:10:08;;;;;;;18.30;8.40;;;7.90;99.90;;;;;;5024576;28;20188;-47
2021/11/08 07:12:35;;;;;;;23.07;9.67;;;7.80;99.90;;;;;;5015104;28;20437;-47
2021/11/08 07:15:01;;;;;;;21.30;9.00;;;7.90;99.90;;;;;;5011480;28;21359;-46
2021/11/08 07:17:26;;;;;;;17.63;8.87;;;7.90;99.90;;;;;;5013153;28;20484;-47
2021/11/08 07:19:52;;;;;;;18.13;8.83;;;7.80;99.90;;;;;;5016294;28;20429;-46
2021/11/08 07:22:18;;;;;;;15.30;8.63;;;7.80;99.90;;;;;;5007578;28;20705;-45
2021/11/08 07:24:43;;;;;;;20.30;10.37;;;7.90;99.90;;;;;;5010259;28;20665;-47
2021/11/08 07:27:09;;;;;;;19.83;8.90;;;8.00;99.90;;;;;;5016441;28;20434;-45
2021/11/08 07:29:37;;;;;;;15.87;8.80;;;8.10;99.90;;;;;;5024515;28;20244;-47
2021/11/08 07:32:05;;;;;;;18.43;9.40;;;8.20;99.90;;;;;;5008546;28;20187;-46
2021/11/08 07:34:31;;;;;;;14.10;7.83;;;8.30;99.90;;;;;;5011062;28;20513;-46
2021/11/08 07:36:57;;;;;;;14.63;8.47;;;8.30;99.90;;;;;;5005528;28;20952;-45
2021/11/08 07:39:23;;;;;;;16.43;9.17;;;8.50;99.90;;;;;;5008727;28;20472;-46
2021/11/08 07:41:49;;;;;;;19.13;10.60;;;8.40;99.90;;;;;;5024975;28;20460;-47
2021/11/08 07:44:16;;;;;;;16.20;9.27;;;8.70;99.90;;;;;;5021092;28;20498;-46
2021/11/08 07:46:42;;;;;;;20.23;9.93;;;8.70;99.90;;;;;;5026555;28;20468;-48
2021/11/08 07:49:08;;;;;;;17.50;9.70;;;9.10;99.90;;;;;;5039512;28;20417;-48
2021/11/08 07:51:33;;;;;;;19.73;9.63;;;9.20;99.90;;;;;;5036511;28;20450;-47
2021/11/08 07:53:59;;;;;;;23.47;9.87;;;9.40;99.90;;;;;;5035894;28;20604;-46
2021/11/08 07:56:25;;;;;;;18.37;9.70;;;9.60;99.90;;;;;;5023210;28;20226;-47
2021/11/08 07:58:51;;;;;;;22.30;9.23;;;9.90;99.90;;;;;;5027276;28;20199;-46
2021/11/08 08:01:17;;;;;;;21.43;9.63;;;10.10;99.90;;;;;;5011259;28;20439;-45
2021/11/08 08:03:45;;;;;;;16.20;9.47;;;10.10;99.90;;;;;;5018572;28;20186;-46
2021/11/08 08:06:12;;;;;;;17.70;10.10;;;10.40;99.90;;;;;;5011733;28;20453;-46
2021/11/08 08:08:38;;;;;;;16.20;8.83;;;10.40;99.90;;;;;;5025567;28;20929;-48
2021/11/08 08:11:06;;;;;;;23.97;9.60;;;10.60;99.90;;;;;;5018864;28;20435;-46
2021/11/08 08:13:34;;;;;;;19.10;8.60;;;10.60;99.90;;;;;;5025644;28;20187;-46
2021/11/08 08:16:01;;;;;;;13.27;8.53;;;10.80;99.90;;;;;;5010977;28;20448;-45
2021/11/08 08:18:29;;;;;;;16.70;7.97;;;11.20;99.90;;;;;;5021381;28;20575;-46
2021/11/08 08:20:56;;;;;;;14.90;8.00;;;11.20;99.90;;;;;;5011066;28;20993;-47
2021/11/08 08:23:22;;;;;;;17.60;8.23;;;11.00;99.90;;;;;;5009719;28;20793;-46
2021/11/08 08:25:48;;;;;;;15.10;8.30;;;11.20;99.90;;;;;;5013960;28;20443;-45
2021/11/08 08:28:14;;;;;;;15.30;7.50;;;11.10;99.90;;;;;;5022129;28;20534;-46
2021/11/08 08:30:40;;;;;;;14.53;7.43;;;11.30;99.90;;;;;;5020991;28;20422;-47
2021/11/08 08:33:06;;;;;;;17.70;9.00;;;11.40;99.90;;;;;;5033996;28;20664;-46
2021/11/08 08:35:37;;;;;;;14.77;7.73;;;11.80;99.90;;;;;;5035904;28;20436;-46
2021/11/08 08:38:04;;;;;;;16.33;8.17;;;11.80;99.90;;;;;;5035794;28;20446;-47
2021/11/08 08:40:29;;;;;;;16.83;7.90;;;11.80;99.90;;;;;;5009458;28;20437;-46
2021/11/08 08:42:55;;;;;;;15.13;7.90;;;11.80;99.90;;;;;;5010691;28;20478;-46
2021/11/08 08:45:21;;;;;;;14.13;8.00;;;11.60;99.90;;;;;;5012527;28;20198;-48
2021/11/08 08:47:46;;;;;;;18.03;7.10;;;11.40;99.90;;;;;;5010279;28;20231;-47
2021/11/08 08:50:12;;;;;;;15.07;7.33;;;11.10;99.90;;;;;;5021114;28;20195;-47
2021/11/08 08:52:39;;;;;;;15.50;8.43;;;10.90;99.90;;;;;;5009868;28;20682;-48
2021/11/08 08:55:06;;;;;;;17.33;7.60;;;10.60;99.90;;;;;;5016425;28;20183;-46
2021/11/08 08:57:32;;;;;;;23.97;8.90;;;10.40;99.90;;;;;;5017495;28;20481;-49
2021/11/08 08:59:58;;;;;;;16.40;8.53;;;10.40;99.90;;;;;;5018953;28;20805;-47
2021/11/08 09:02:24;;;;;;;15.50;9.17;;;10.40;99.90;;;;;;5009937;28;20422;-47
2021/11/08 09:04:50;;;;;;;17.80;9.10;;;10.50;99.90;;;;;;5015968;28;20194;-47
2021/11/08 09:07:16;;;;;;;19.90;8.30;;;10.70;99.90;;;;;;5009629;28;20223;-47
2021/11/08 09:09:42;;;;;;;16.43;9.07;;;10.50;99.90;;;;;;5009993;28;20679;-48
2021/11/08 09:12:09;;;;;;;21.47;9.80;;;10.50;99.90;;;;;;5015390;28;20424;-47
2021/11/08 09:14:35;;;;;;;18.00;8.20;;;10.60;99.90;;;;;;5024759;28;20461;-46
2021/11/08 09:17:04;;;;;;;15.73;8.80;;;10.70;99.90;;;;;;5021471;28;20529;-46
2021/11/08 09:19:30;;;;;;;16.23;8.80;;;10.70;99.90;;;;;;5012493;28;20924;-50
2021/11/08 09:21:57;;;;;;;16.40;8.10;;;10.90;99.90;;;;;;5009749;28;20434;-47
2021/11/08 09:24:22;;;;;;;18.83;8.47;;;11.10;99.90;;;;;;5008991;28;20426;-48
2021/11/08 09:26:49;;;;;;;19.87;8.67;;;10.90;99.90;;;;;;5017617;28;20469;-46
2021/11/08 09:29:19;;;;;;;17.10;7.50;;;11.10;99.90;;;;;;5025712;28;20179;-46
2021/11/08 09:31:46;;;;;;;17.70;8.30;;;11.10;99.90;;;;;;5009540;28;20421;-47
2021/11/08 09:34:15;;;;;;;18.53;7.83;;;11.20;99.90;;;;;;5015867;28;20421;-46
2021/11/08 09:36:44;;;;;;;19.07;7.80;;;11.30;99.90;;;;;;5012949;28;20429;-46
2021/11/08 09:39:24;;;;;;;16.67;7.73;;;11.30;99.90;;;;;;5009566;28;20421;-47
2021/11/08 09:41:53;;;;;;;15.70;7.50;;;11.60;99.90;;;;;;5020854;28;20436;-45
2021/11/08 09:44:19;;;;;;;18.37;7.90;;;11.90;99.90;;;;;;5019633;28;20417;-47
2021/11/08 09:46:49;;;;;;;16.97;7.07;;;11.70;99.90;;;;;;5009207;28;20458;-46
2021/11/08 09:49:15;;;;;;;19.80;7.27;;;12.00;99.90;;;;;;5015915;28;20782;-46
2021/11/08 09:51:43;;;;;;;11.40;6.83;;;12.30;99.90;;;;;;5010695;28;20464;-47
2021/11/08 09:54:10;;;;;;;23.17;8.60;;;12.40;99.90;;;;;;5008634;28;20195;-47
2021/11/08 09:56:40;;;;;;;19.30;8.27;;;12.60;99.90;;;;;;5023519;28;20567;-46
2021/11/08 09:59:07;;;;;;;16.93;7.70;;;12.80;99.90;;;;;;5025222;28;20439;-47
2021/11/08 10:01:37;;;;;;;16.20;8.20;;;13.00;99.90;;;;;;5020766;28;20445;-47
2021/11/08 10:04:04;;;;;;;23.00;8.67;;;12.70;99.90;;;;;;5011521;28;20451;-47
2021/11/08 10:06:32;;;;;;;17.73;7.73;;;12.60;99.90;;;;;;5009060;28;20465;-46
2021/11/08 10:08:58;;;;;;;16.03;8.80;;;12.20;99.90;;;;;;5008663;28;20477;-48
2021/11/08 10:11:26;;;;;;;14.77;8.10;;;11.90;99.90;;;;;;5011601;28;20480;-46
2021/11/08 10:13:53;;;;;;;15.83;8.13;;;11.70;99.90;;;;;;5023192;28;20428;-47
2021/11/08 10:16:31;;;;;;;20.20;7.60;;;11.80;99.90;;;;;;5017598;28;20426;-48
2021/11/08 10:18:59;;;;;;;16.00;8.60;;;11.50;99.90;;;;;;5014693;28;20432;-46
2021/11/08 10:21:39;;;;;;;14.67;8.33;;;11.60;99.90;;;;;;5018228;28;20942;-46
2021/11/08 10:24:18;;;;;;;22.33;8.40;;;11.20;99.90;;;;;;5007721;28;20449;-49
2021/11/08 10:26:45;;;;;;;20.40;8.27;;;11.00;99.90;;;;;;5015451;28;20820;-46
2021/11/08 10:29:21;;;;;;;16.57;7.07;;;10.90;99.90;;;;;;5023166;28;20429;-49
2021/11/08 10:31:52;;;;;;;18.17;8.27;;;11.00;99.90;;;;;;5025569;28;20417;-47
2021/11/08 10:34:19;;;;;;;12.40;7.37;;;11.00;99.90;;;;;;5008358;28;20457;-47
2021/11/08 10:36:54;;;;;;;16.70;8.17;;;11.00;99.90;;;;;;5011115;28;20422;-46
2021/11/08 10:39:20;;;;;;;19.33;8.43;;;11.10;99.90;;;;;;5008333;28;20799;-45
2021/11/08 10:41:45;;;;;;;23.97;8.90;;;11.30;99.90;;;;;;5010651;28;20541;-48
2021/11/08 10:44:21;;;;;;;17.83;8.73;;;11.30;99.90;;;;;;5018848;28;20197;-49
2021/11/08 10:46:49;;;;;;;18.53;7.90;;;11.50;99.90;;;;;;5018648;28;20217;-46
2021/11/08 10:49:18;;;;;;;19.57;8.20;;;11.50;99.90;;;;;;5008220;28;20665;-46
2021/11/08 10:51:50;;;;;;;22.30;8.37;;;11.60;99.90;;;;;;5009087;28;20525;-46
2021/11/08 10:54:34;;;;;;;17.43;7.60;;;11.50;99.90;;;;;;5008133;28;20464;-46
2021/11/08 10:57:12;;;;;;;17.30;8.20;;;11.50;99.90;;;;;;5026527;28;20453;-47
2021/11/08 10:59:44;;;;;;;20.87;8.00;;;11.60;99.90;;;;;;5019161;28;20424;-49
2021/11/08 11:02:13;;;;;;;17.27;7.67;;;11.70;99.90;;;;;;5011384;28;20434;-47
2021/11/08 11:04:47;;;;;;;20.93;7.73;;;11.70;99.90;;;;;;5009274;28;20898;-46
2021/11/08 11:07:26;;;;;;;18.70;7.67;;;11.80;99.90;;;;;;5013798;28;20484;-48
2021/11/08 11:10:00;;;;;;;16.37;7.83;;;12.00;99.90;;;;;;5008098;28;20961;-46
2021/11/08 11:12:27;;;;;;;19.17;9.17;;;11.80;99.90;;;;;;5014262;28;20452;-46
2021/11/08 11:15:09;;;;;;;19.60;7.50;;;11.90;99.90;;;;;;5012291;28;20414;-47
2021/11/08 11:17:44;;;;;;;15.90;6.97;;;12.00;99.90;;;;;;5014028;28;20434;-49
2021/11/08 11:20:09;;;;;;;15.90;6.60;;;12.10;99.90;;;;;;5012760;28;20809;-47
2021/11/08 11:22:41;;;;;;;13.70;6.13;;;12.10;99.90;;;;;;5007293;28;20418;-48
2021/11/08 11:25:09;;;;;;;13.60;7.03;;;11.90;99.90;;;;;;5007574;28;20273;-47
2021/11/08 11:27:47;;;;;;;15.07;7.47;;;12.10;99.90;;;;;;5014599;28;20579;-46
2021/11/08 11:30:26;;;;;;;19.13;8.90;;;12.00;99.90;;;;;;5021338;28;20433;-46
2021/11/08 11:33:03;;;;;;;16.13;8.23;;;12.00;99.90;;;;;;5018476;28;20496;-47
2021/11/08 11:35:40;;;;;;;19.23;7.83;;;12.10;99.90;;;;;;5019955;28;20428;-48
2021/11/08 11:38:14;;;;;;;18.73;8.10;;;12.30;99.90;;;;;;5007398;28;20504;-47
2021/11/08 11:40:43;;;;;;;23.80;9.10;;;12.40;99.90;;;;;;5007554;28;20420;-46
2021/11/08 11:43:14;;;;;;;24.20;9.20;;;12.40;99.90;;;;;;5012839;28;20999;-45
2021/11/08 11:45:52;;;;;;;22.17;8.63;;;12.30;99.90;;;;;;5024461;28;20428;-46
2021/11/08 11:48:27;;;;;;;17.40;7.70;;;12.30;99.90;;;;;;5007400;28;21018;-48
2021/11/08 11:50:53;;;;;;;24.00;9.33;;;12.30;99.90;;;;;;5016786;28;20504;-46
2021/11/08 11:53:20;;;;;;;15.37;8.13;;;12.40;99.90;;;;;;5006967;28;20777;-48
2021/11/08 11:55:46;;;;;;;17.30;8.63;;;12.30;99.90;;;;;;5019878;28;20418;-46
2021/11/08 11:58:14;;;;;;;15.07;7.87;;;12.30;99.90;;;;;;5016719;28;20449;-46
2021/11/08 12:00:42;;;;;;;16.57;8.10;;;12.30;99.90;;;;;;5021785;28;20421;-47
2021/11/08 12:03:07;;;;;;;22.63;7.97;;;12.20;99.90;;;;;;5021211;28;20426;-46
2021/11/08 12:05:35;;;;;;;14.23;7.03;;;12.20;99.90;;;;;;5014139;28;20431;-47
2021/11/08 12:08:04;;;;;;;16.17;8.80;;;12.20;99.90;;;;;;5007218;28;20256;-46
2021/11/08 12:10:31;;;;;;;17.17;8.83;;;12.10;99.90;;;;;;5007066;28;20988;-46
2021/11/08 12:12:57;;;;;;;19.00;8.57;;;12.00;99.90;;;;;;5006246;28;20430;-48
2021/11/08 12:15:28;;;;;;;19.80;10.23;;;11.90;99.90;;;;;;5014307;28;20502;-49
2021/11/08 12:17:55;;;;;;;20.53;10.20;;;11.90;99.90;;;;;;5013234;28;20191;-48
2021/11/08 12:20:24;;;;;;;21.07;11.87;;;11.80;99.90;;;;;;5009091;28;20586;-47
2021/11/08 12:22:51;;;;;;;19.70;9.33;;;11.70;99.90;;;;;;5006270;28;20422;-46
2021/11/08 12:25:23;;;;;;;13.40;10.07;;;11.70;99.90;;;;;;5007237;28;20606;-51
2021/11/08 12:28:07;;;;;;;19.27;10.47;;;11.60;99.90;;;;;;5009284;28;20469;-47
2021/11/08 12:30:35;;;;;;;20.87;9.50;;;11.40;99.90;;;;;;5013380;28;20425;-47
2021/11/08 12:33:04;;;;;;;17.10;10.50;;;11.70;99.90;;;;;;5008160;28;20491;-45
2021/11/08 12:35:31;;;;;;;22.60;9.83;;;11.60;99.90;;;;;;5012893;28;20479;-48
2021/11/08 12:37:57;;;;;;;22.20;9.40;;;11.60;99.90;;;;;;5018160;28;20802;-46
2021/11/08 12:40:30;;;;;;;22.00;9.80;;;11.90;99.90;;;;;;5010640;28;20437;-46
2021/11/08 12:42:56;;;;;;;20.67;10.70;;;11.60;99.90;;;;;;5016435;28;20183;-46
2021/11/08 12:45:36;;;;;;;20.10;9.70;;;11.70;99.90;;;;;;5034004;28;20419;-47
2021/11/08 12:48:09;;;;;;;15.17;9.50;;;11.80;99.90;;;;;;5033863;28;20982;-51
2021/11/08 12:50:47;;;;;;;17.17;10.40;;;11.70;99.90;;;;;;5014520;28;20421;-46
2021/11/08 12:53:30;;;;;;;18.30;8.47;;;11.80;99.90;;;;;;5011022;28;20426;-50
2021/11/08 12:56:00;;;;;;;15.20;9.60;;;11.70;99.90;;;;;;5029579;28;20428;-45
2021/11/08 12:58:42;;;;;;;18.23;9.23;;;11.70;99.90;;;;;;5030927;28;20468;-47
2021/11/08 13:01:11;;;;;;;18.50;9.73;;;11.60;99.90;;;;;;5021946;28;20484;-47
2021/11/08 13:03:40;;;;;;;13.30;8.77;;;11.50;99.90;;;;;;5018826;28;20432;-47
2021/11/08 13:06:08;;;;;;;18.47;9.40;;;11.60;99.90;;;;;;5013071;28;20422;-48
2021/11/08 13:08:34;;;;;;;12.80;8.87;;;11.60;99.90;;;;;;5010090;28;20462;-47
2021/11/08 13:11:11;;;;;;;14.60;8.83;;;11.60;99.90;;;;;;5010168;28;20422;-49
2021/11/08 13:13:53;;;;;;;23.00;9.47;;;11.60;99.90;;;;;;5015209;28;20426;-48
2021/11/08 13:16:29;;;;;;;16.90;8.60;;;11.60;99.90;;;;;;5023106;28;20420;-47
2021/11/08 13:19:06;;;;;;;20.27;9.47;;;11.60;99.90;;;;;;5013537;28;20421;-50
2021/11/08 13:21:33;;;;;;;15.83;8.30;;;11.50;99.90;;;;;;5019715;28;20453;-47
2021/11/08 13:23:59;;;;;;;23.63;10.00;;;11.60;99.90;;;;;;5010985;28;20597;-46
2021/11/08 13:26:26;;;;;;;21.03;8.83;;;11.60;99.90;;;;;;5009918;28;20441;-49
2021/11/08 13:28:52;;;;;;;15.57;8.60;;;11.50;99.90;;;;;;5020952;28;20441;-47
2021/11/08 13:31:18;;;;;;;20.93;8.83;;;11.50;99.90;;;;;;5020326;28;20409;-45
2021/11/08 13:33:47;;;;;;;12.93;8.23;;;11.60;99.90;;;;;;5008531;28;20187;-46
2021/11/08 13:36:14;;;;;;;15.23;8.00;;;11.60;99.90;;;;;;5014780;28;20705;-46
2021/11/08 13:38:52;;;;;;;18.60;8.60;;;11.50;99.90;;;;;;5010769;28;20906;-46
2021/11/08 13:41:39;;;;;;;17.17;8.20;;;11.80;99.90;;;;;;5009249;28;20836;-48
2021/11/08 13:44:13;;;;;;;15.03;9.43;;;11.70;99.90;;;;;;5020523;28;20437;-46
2021/11/08 13:46:40;;;;;;;16.80;7.90;;;11.70;99.90;;;;;;5017059;28;20510;-45
2021/11/08 13:49:18;;;;;;;16.30;8.90;;;11.80;99.90;;;;;;5018236;28;20936;-48
2021/11/08 13:51:49;;;;;;;14.03;7.67;;;12.00;99.90;;;;;;5013029;28;20414;-45
2021/11/08 13:54:39;;;;;;;17.53;8.80;;;12.10;99.90;;;;;;5009237;28;20963;-47
2021/11/08 13:57:07;;;;;;;14.53;6.57;;;11.80;99.90;;;;;;5028743;28;20457;-46
2021/11/08 13:59:39;;;;;;;16.43;7.50;;;12.00;99.90;;;;;;5023364;28;20433;-46
2021/11/08 14:02:10;;;;;;;16.73;7.63;;;11.90;99.90;;;;;;5023606;28;21046;-47
2021/11/08 14:04:49;;;;;;;21.80;7.83;;;11.90;99.90;;;;;;5009362;28;20472;-46
2021/11/08 14:07:20;;;;;;;15.57;6.97;;;11.90;99.90;;;;;;5021627;28;20575;-46
2021/11/08 14:09:49;;;;;;;13.77;6.40;;;12.00;99.90;;;;;;5009154;28;20879;-48
2021/11/08 14:12:18;;;;;;;15.13;7.43;;;11.80;99.90;;;;;;5008425;28;20791;-47
2021/11/08 14:14:44;;;;;;;14.23;7.33;;;11.70;99.90;;;;;;5015023;28;20760;-48
2021/11/08 14:17:33;;;;;;;18.77;7.67;;;11.60;99.90;;;;;;5021723;28;20826;-47
2021/11/08 14:20:06;;;;;;;16.00;6.87;;;11.70;99.90;;;;;;5009188;28;20434;-48
2021/11/08 14:22:36;;;;;;;10.87;6.73;;;11.70;99.90;;;;;;5017680;28;20438;-49
2021/11/08 14:25:05;;;;;;;13.70;6.17;;;11.70;99.90;;;;;;5008159;28;20436;-47
2021/11/08 14:27:33;;;;;;;15.50;6.00;;;11.80;99.90;;;;;;5008732;28;20458;-46
2021/11/08 14:30:10;;;;;;;10.63;5.93;;;11.60;99.90;;;;;;5015445;28;20755;-47
2021/11/08 14:32:36;;;;;;;14.30;7.07;;;11.50;99.90;;;;;;5025141;28;21078;-48
2021/11/08 14:35:06;;;;;;;10.53;6.20;;;11.50;99.90;;;;;;5012561;28;20458;-46
2021/11/08 14:37:46;;;;;;;14.20;6.97;;;11.40;99.90;;;;;;5013329;28;20191;-49
2021/11/08 14:40:17;;;;;;;18.07;7.37;;;11.30;99.90;;;;;;5008166;28;20438;-51